createdAt,value
2023-01-21T00:02:20.564Z,8.70
2023-01-21T00:04:48.608Z,11.15
2023-01-21T00:07:16.884Z,10.30
2023-01-21T00:09:45.197Z,9.88
2023-01-21T00:12:15.814Z,10.38
2023-01-21T00:14:43.873Z,10.18
2023-01-21T00:17:13.933Z,8.52
2023-01-21T00:19:42.427Z,8.10
2023-01-21T00:22:10.677Z,8.73
2023-01-21T00:24:39.135Z,8.77
2023-01-21T00:27:07.450Z,8.65
2023-01-21T00:29:37.073Z,9.48
2023-01-21T00:32:05.749Z,9.63
2023-01-21T00:34:34.130Z,9.02
2023-01-21T00:37:02.343Z,8.35
2023-01-21T00:39:30.548Z,8.48
2023-01-21T00:41:58.905Z,8.32
2023-01-21T00:44:27.149Z,8.68
2023-01-21T00:46:56.726Z,8.18
2023-01-21T00:49:24.935Z,8.05
2023-01-21T00:51:55.811Z,7.97
2023-01-21T00:54:24.204Z,8.93
2023-01-21T00:56:52.838Z,8.25
2023-01-21T00:59:23.991Z,8.55
2023-01-21T01:01:53.159Z,8.77
2023-01-21T01:04:24.497Z,6.95
2023-01-21T01:06:55.317Z,7.35
2023-01-21T01:09:29.868Z,6.57
2023-01-21T01:12:03.947Z,7.30
2023-01-21T01:14:36.823Z,7.72
2023-01-21T01:17:05.211Z,7.50
2023-01-21T01:19:35.123Z,7.40
2023-01-21T01:22:03.450Z,6.43
2023-01-21T01:24:33.037Z,8.27
2023-01-21T01:27:01.915Z,6.60
2023-01-21T01:29:30.607Z,6.32
2023-01-21T01:31:59.293Z,7.35
2023-01-21T01:34:27.851Z,6.95
2023-01-21T01:36:57.628Z,7.22
2023-01-21T01:39:26.599Z,7.20
2023-01-21T01:41:55.857Z,5.90
2023-01-21T01:44:56.195Z,6.90
2023-01-21T01:47:28.474Z,6.97
2023-01-21T01:49:58.003Z,6.55
2023-01-21T01:52:29.158Z,6.70
2023-01-21T01:55:01.884Z,7.80
2023-01-21T01:57:35.985Z,7.97
2023-01-21T02:00:06.804Z,8.75
2023-01-21T02:02:37.079Z,8.57
2023-01-21T02:05:08.443Z,8.65
2023-01-21T02:07:41.156Z,8.90
2023-01-21T02:10:12.427Z,7.43
2023-01-21T02:12:44.340Z,7.40
2023-01-21T02:15:13.421Z,6.53
2023-01-21T02:17:55.060Z,6.72
2023-01-21T02:21:19.252Z,7.38
2023-01-21T02:24:12.856Z,6.57
2023-01-21T02:27:07.743Z,7.43
2023-01-21T02:29:57.863Z,6.88
2023-01-21T02:33:00.082Z,7.75
2023-01-21T02:35:36.508Z,7.25
2023-01-21T02:38:13.412Z,8.63
2023-01-21T02:40:53.586Z,8.38
2023-01-21T02:43:30.719Z,8.38
2023-01-21T02:46:07.758Z,9.77
2023-01-21T02:48:43.012Z,8.82
2023-01-21T02:51:13.561Z,9.13
2023-01-21T02:53:41.498Z,9.45
2023-01-21T02:56:13.505Z,9.02
2023-01-21T02:58:45.222Z,10.93
2023-01-21T03:01:23.258Z,12.05
2023-01-21T03:04:27.141Z,11.40
2023-01-21T03:07:07.861Z,10.60
2023-01-21T03:09:37.499Z,10.77
2023-01-21T03:12:25.536Z,11.18
2023-01-21T03:15:18.870Z,11.65
2023-01-21T03:17:53.640Z,11.60
2023-01-21T03:20:26.029Z,11.25
2023-01-21T03:23:02.398Z,11.75
2023-01-21T03:25:33.356Z,12.90
2023-01-21T03:28:06.679Z,13.32
2023-01-21T03:30:43.299Z,11.57
2023-01-21T03:33:14.870Z,12.60
2023-01-21T03:35:47.379Z,12.60
2023-01-21T03:38:22.797Z,11.35
2023-01-21T03:40:57.250Z,11.45
2023-01-21T03:43:25.393Z,11.57
2023-01-21T03:46:03.318Z,12.57
2023-01-21T03:48:41.328Z,11.70
2023-01-21T03:51:12.983Z,13.52
2023-01-21T03:53:43.018Z,13.02
2023-01-21T03:56:10.932Z,12.05
2023-01-21T03:58:38.951Z,12.65
2023-01-21T04:01:06.981Z,12.50
2023-01-21T04:03:35.213Z,12.38
2023-01-21T04:06:04.187Z,11.77
2023-01-21T04:08:32.114Z,13.18
2023-01-21T04:11:01.547Z,12.98
2023-01-21T04:13:29.700Z,13.45
2023-01-21T04:15:57.659Z,13.70
2023-01-21T04:18:25.710Z,14.98
2023-01-21T04:20:53.647Z,12.90
2023-01-21T04:23:23.560Z,15.23
2023-01-21T04:25:54.778Z,13.65
2023-01-21T04:28:24.158Z,14.82
2023-01-21T04:30:52.155Z,13.23
2023-01-21T04:33:20.194Z,13.05
2023-01-21T04:35:48.086Z,13.63
2023-01-21T04:38:17.350Z,13.27
2023-01-21T04:40:45.323Z,13.60
2023-01-21T04:43:15.144Z,13.75
2023-01-21T04:45:45.889Z,14.48
2023-01-21T04:48:13.837Z,14.32
2023-01-21T04:50:41.819Z,12.95
2023-01-21T04:53:09.736Z,13.25
2023-01-21T04:55:37.626Z,13.95
2023-01-21T04:58:05.565Z,13.00
2023-01-21T05:00:33.538Z,13.60
2023-01-21T05:03:02.821Z,12.63
2023-01-21T05:05:30.771Z,14.13
2023-01-21T05:07:58.726Z,12.80
2023-01-21T05:10:28.380Z,12.93
2023-01-21T05:12:59.464Z,13.00
2023-01-21T05:15:27.446Z,10.13
2023-01-21T05:17:55.403Z,11.57
2023-01-21T05:20:25.068Z,12.32
2023-01-21T05:22:57.907Z,13.55
2023-01-21T05:25:25.888Z,11.25
2023-01-21T05:27:58.942Z,13.15
2023-01-21T05:30:26.927Z,12.80
2023-01-21T05:32:57.628Z,13.35
2023-01-21T05:35:27.129Z,12.85
2023-01-21T05:37:55.186Z,12.23
2023-01-21T05:40:26.122Z,12.73
2023-01-21T05:42:54.422Z,10.15
2023-01-21T05:45:22.476Z,12.23
2023-01-21T05:47:50.763Z,11.80
2023-01-21T05:50:19.369Z,11.57
2023-01-21T05:52:49.022Z,12.05
2023-01-21T05:55:17.245Z,12.27
2023-01-21T05:57:45.429Z,9.27
2023-01-21T06:00:14.938Z,10.52
2023-01-21T06:02:43.358Z,9.73
2023-01-21T06:05:13.609Z,9.95
2023-01-21T06:07:41.716Z,9.25
2023-01-21T06:10:12.552Z,9.10
2023-01-21T06:12:43.565Z,9.90
2023-01-21T06:15:13.997Z,9.90
2023-01-21T06:17:42.144Z,11.70
2023-01-21T06:20:11.712Z,9.40
2023-01-21T06:22:39.903Z,11.38
2023-01-21T06:25:08.694Z,9.93
2023-01-21T06:27:38.918Z,9.25
2023-01-21T06:30:08.549Z,8.45
2023-01-21T06:32:37.644Z,7.43
2023-01-21T06:35:06.727Z,9.20
2023-01-21T06:37:34.931Z,8.60
2023-01-21T06:40:03.189Z,8.85
2023-01-21T06:42:31.431Z,9.13
2023-01-21T06:45:03.875Z,10.02
2023-01-21T06:49:59.896Z,9.70
2023-01-21T06:52:28.138Z,9.85
2023-01-21T06:54:56.388Z,11.13
2023-01-21T06:57:25.020Z,12.20
2023-01-21T06:59:53.347Z,12.55
2023-01-21T07:02:22.975Z,12.13
2023-01-21T07:04:51.416Z,10.73
2023-01-21T07:07:19.833Z,11.65
2023-01-21T07:09:48.181Z,13.23
2023-01-21T07:12:16.345Z,12.40
2023-01-21T07:14:44.555Z,13.65
2023-01-21T07:17:12.896Z,13.35
2023-01-21T07:19:43.173Z,13.07
2023-01-21T07:22:11.498Z,12.68
2023-01-21T07:24:39.784Z,15.52
2023-01-21T07:27:08.051Z,13.68
2023-01-21T07:29:36.271Z,13.68
2023-01-21T07:32:07.501Z,14.55
2023-01-21T07:37:37.033Z,12.88
2023-01-21T07:40:08.211Z,13.40
2023-01-21T07:42:36.609Z,13.27
2023-01-21T07:45:05.888Z,13.60
2023-01-21T07:47:34.223Z,15.40
2023-01-21T07:50:05.082Z,13.75
2023-01-21T07:52:34.782Z,14.65
2023-01-21T07:55:03.112Z,13.40
2023-01-21T07:57:31.785Z,17.73
2023-01-21T08:00:02.016Z,13.63
2023-01-21T08:02:30.220Z,16.23
2023-01-21T08:04:58.309Z,15.65
2023-01-21T08:07:26.321Z,16.15
2023-01-21T08:09:58.688Z,15.65
2023-01-21T08:14:55.806Z,14.10
2023-01-21T08:17:24.366Z,13.45
2023-01-21T08:19:52.374Z,15.80
2023-01-21T08:22:20.835Z,14.60
2023-01-21T08:24:49.128Z,15.02
2023-01-21T08:27:18.993Z,14.48
2023-01-21T08:29:48.629Z,15.80
2023-01-21T08:32:17.266Z,16.35
2023-01-21T08:34:48.762Z,14.07
2023-01-21T08:37:17.171Z,11.53
2023-01-21T08:39:45.665Z,18.45
2023-01-21T08:42:17.711Z,17.08
2023-01-21T08:44:50.994Z,15.38
2023-01-21T08:47:19.311Z,15.48
2023-01-21T08:49:47.568Z,16.77
2023-01-21T08:52:17.208Z,18.05
2023-01-21T08:54:48.208Z,16.73
2023-01-21T08:57:17.908Z,16.50
2023-01-21T08:59:47.547Z,15.32
2023-01-21T09:02:15.700Z,14.85
2023-01-21T09:04:43.828Z,15.95
2023-01-21T09:07:12.033Z,15.65
2023-01-21T09:09:40.123Z,14.93
2023-01-21T09:12:08.600Z,17.45
2023-01-21T09:14:41.488Z,11.25
2023-01-21T09:17:22.512Z,13.68
2023-01-21T09:19:50.773Z,11.95
2023-01-21T09:22:21.726Z,15.95
2023-01-21T09:24:51.689Z,13.68
2023-01-21T09:27:21.030Z,14.88
2023-01-21T09:29:49.024Z,14.98
2023-01-21T09:32:18.416Z,16.20
2023-01-21T09:34:46.376Z,16.92
2023-01-21T09:37:14.237Z,15.38
2023-01-21T09:39:45.294Z,17.08
2023-01-21T09:42:18.829Z,14.15
2023-01-21T09:44:52.345Z,17.73
2023-01-21T09:47:27.282Z,16.70
2023-01-21T09:49:56.960Z,16.45
2023-01-21T09:52:30.759Z,18.02
2023-01-21T09:54:59.626Z,17.70
2023-01-21T09:58:04.076Z,16.55
2023-01-21T10:00:36.625Z,15.80
2023-01-21T10:03:16.219Z,21.70
2023-01-21T10:06:16.502Z,18.35
2023-01-21T10:09:01.966Z,17.08
2023-01-21T10:11:46.277Z,15.77
2023-01-21T10:14:31.362Z,15.52
2023-01-21T10:17:07.960Z,14.07
2023-01-21T10:19:48.410Z,15.02
2023-01-21T10:22:21.306Z,15.35
2023-01-21T10:24:52.276Z,14.27
2023-01-21T10:27:22.643Z,15.30
2023-01-21T10:29:54.516Z,16.27
2023-01-21T10:32:25.710Z,15.65
2023-01-21T10:34:56.729Z,15.50
2023-01-21T10:37:33.723Z,15.98
2023-01-21T10:40:06.939Z,15.20
2023-01-21T10:42:53.404Z,14.43
2023-01-21T10:45:32.333Z,13.35
2023-01-21T10:48:07.115Z,12.80
2023-01-21T10:50:44.224Z,13.50
2023-01-21T10:53:22.074Z,14.32
2023-01-21T10:56:09.880Z,14.93
2023-01-21T10:58:43.918Z,12.05
2023-01-21T11:01:22.012Z,14.88
2023-01-21T11:03:53.123Z,14.00
2023-01-21T11:06:25.103Z,13.57
2023-01-21T11:08:58.423Z,13.05
2023-01-21T11:11:28.945Z,12.18
2023-01-21T11:13:57.298Z,14.65
2023-01-21T11:16:46.675Z,13.60
2023-01-21T11:19:26.821Z,14.70
2023-01-21T11:22:02.707Z,12.18
2023-01-21T11:24:32.614Z,15.02
2023-01-21T11:27:01.843Z,15.57
2023-01-21T11:29:42.431Z,14.43
2023-01-21T11:32:19.305Z,14.23
2023-01-21T11:34:52.009Z,12.80
2023-01-21T11:37:27.158Z,15.27
2023-01-21T11:39:57.817Z,13.25
2023-01-21T11:42:26.712Z,14.75
2023-01-21T11:44:56.597Z,11.90
2023-01-21T11:47:30.921Z,12.30
2023-01-21T11:50:10.674Z,13.20
2023-01-21T11:52:41.659Z,11.80
2023-01-21T11:55:22.201Z,14.10
2023-01-21T11:57:53.425Z,12.00
2023-01-21T12:00:23.604Z,12.25
2023-01-21T12:02:54.924Z,12.45
2023-01-21T12:05:30.540Z,13.80
2023-01-21T12:08:00.377Z,13.50
2023-01-21T12:10:35.652Z,14.10
2023-01-21T12:13:21.548Z,12.93
2023-01-21T12:16:23.388Z,12.07
2023-01-21T12:19:29.081Z,9.50
2023-01-21T12:22:19.391Z,13.18
2023-01-21T12:25:18.112Z,12.40
2023-01-21T12:28:01.103Z,11.15
2023-01-21T12:30:40.081Z,13.40
2023-01-21T12:33:16.848Z,11.88
2023-01-21T12:35:48.819Z,12.35
2023-01-21T12:38:20.458Z,13.95
2023-01-21T12:40:57.385Z,12.65
2023-01-21T12:43:31.464Z,11.18
2023-01-21T12:46:06.279Z,12.15
2023-01-21T12:48:40.548Z,13.88
2023-01-21T12:51:12.315Z,11.27
2023-01-21T12:53:47.462Z,10.90
2023-01-21T12:56:24.113Z,11.27
2023-01-21T12:58:56.289Z,13.55
2023-01-21T13:01:41.023Z,12.30
2023-01-21T13:04:30.160Z,11.23
2023-01-21T13:07:03.726Z,11.68
2023-01-21T13:09:39.077Z,13.63
2023-01-21T13:12:16.457Z,12.73
2023-01-21T13:14:48.491Z,13.38
2023-01-21T13:17:20.918Z,10.82
2023-01-21T13:19:49.371Z,11.93
2023-01-21T13:22:29.918Z,12.10
2023-01-21T13:25:06.312Z,13.48
2023-01-21T13:27:45.520Z,12.30
2023-01-21T13:30:24.742Z,9.18
2023-01-21T13:32:59.752Z,12.73
2023-01-21T13:35:38.232Z,12.85
2023-01-21T13:38:17.191Z,14.15
2023-01-21T13:40:54.811Z,12.60
2023-01-21T13:43:54.499Z,11.27
2023-01-21T13:46:49.663Z,11.98
2023-01-21T13:49:45.690Z,12.15
2023-01-21T13:52:18.438Z,11.65
2023-01-21T13:55:07.714Z,13.15
2023-01-21T13:58:03.034Z,11.30
2023-01-21T14:00:38.169Z,11.40
2023-01-21T14:03:13.583Z,13.15
2023-01-21T14:05:45.698Z,12.80
2023-01-21T14:08:20.639Z,11.68
2023-01-21T14:10:54.101Z,10.70
2023-01-21T14:14:00.695Z,11.85
2023-01-21T14:16:52.576Z,10.50
2023-01-21T14:19:39.328Z,9.83
2023-01-21T14:22:24.422Z,11.13
2023-01-21T14:25:10.075Z,10.50
2023-01-21T14:27:46.865Z,13.80
2023-01-21T14:30:24.055Z,10.40
2023-01-21T14:32:57.935Z,10.82
2023-01-21T14:35:34.618Z,11.38
2023-01-21T14:38:12.639Z,9.55
2023-01-21T14:40:48.984Z,9.77
2023-01-21T14:43:44.421Z,9.80
2023-01-21T14:46:30.846Z,10.25
2023-01-21T14:49:06.328Z,10.25
2023-01-21T14:51:41.911Z,8.88
2023-01-21T14:54:32.156Z,8.30
2023-01-21T14:57:18.831Z,9.45
2023-01-21T14:59:51.495Z,9.43
2023-01-21T15:02:35.833Z,11.02
2023-01-21T15:08:30.008Z,8.43
2023-01-21T15:11:04.832Z,8.60
2023-01-21T15:13:37.511Z,6.65
2023-01-21T15:16:16.061Z,8.15
2023-01-21T15:18:48.558Z,7.95
2023-01-21T15:24:26.000Z,9.52
2023-01-21T15:27:16.472Z,8.73
2023-01-21T15:29:48.866Z,9.10
2023-01-21T15:32:28.468Z,9.77
2023-01-21T15:35:00.174Z,10.35
2023-01-21T15:37:32.415Z,9.60
2023-01-21T15:40:03.494Z,9.18
2023-01-21T15:42:41.385Z,12.80
2023-01-21T15:45:28.902Z,11.80
2023-01-21T15:48:10.848Z,12.25
2023-01-21T15:50:47.031Z,10.00
2023-01-21T15:53:40.169Z,10.90
2023-01-21T15:56:30.590Z,13.90
2023-01-21T15:59:09.020Z,10.90
2023-01-21T16:01:39.135Z,11.38
2023-01-21T16:04:28.233Z,9.80
2023-01-21T16:07:10.802Z,13.75
2023-01-21T16:12:27.598Z,12.60
2023-01-21T16:15:01.086Z,9.95
2023-01-21T16:17:43.911Z,10.30
2023-01-21T16:20:14.537Z,11.20
2023-01-21T16:22:46.929Z,9.45
2023-01-21T16:25:23.646Z,8.20
2023-01-21T16:27:54.106Z,8.48
2023-01-21T16:30:23.698Z,8.65
2023-01-21T16:33:13.425Z,9.20
2023-01-21T16:35:46.163Z,9.07
2023-01-21T16:38:19.869Z,8.68
2023-01-21T16:40:51.359Z,9.50
2023-01-21T16:43:24.826Z,9.03
2023-01-21T16:45:59.063Z,9.18
2023-01-21T16:48:30.795Z,8.35
2023-01-21T16:50:59.604Z,7.65
2023-01-21T16:53:29.807Z,9.68
2023-01-21T16:56:00.818Z,9.02
2023-01-21T16:58:32.429Z,8.18
2023-01-21T17:01:05.960Z,7.43
2023-01-21T17:03:36.196Z,8.60
2023-01-21T17:06:09.968Z,7.30
2023-01-21T17:08:39.760Z,7.65
2023-01-21T17:11:11.855Z,6.80
2023-01-21T17:13:43.102Z,7.57
2023-01-21T17:16:25.609Z,7.30
2023-01-21T17:18:57.939Z,9.57
2023-01-21T17:21:33.412Z,7.53
2023-01-21T17:24:05.552Z,7.57
2023-01-21T17:26:38.098Z,8.43
2023-01-21T17:29:12.313Z,6.78
2023-01-21T17:31:41.247Z,8.23
2023-01-21T17:34:21.958Z,7.55
2023-01-21T17:36:51.795Z,8.93
2023-01-21T17:39:53.160Z,7.00
2023-01-21T17:42:25.609Z,8.77
2023-01-21T17:47:27.642Z,7.70
2023-01-21T17:50:01.490Z,7.30
2023-01-21T17:52:29.893Z,7.93
2023-01-21T17:55:27.111Z,8.00
2023-01-21T17:57:56.678Z,7.20
2023-01-21T18:00:36.873Z,7.32
2023-01-21T18:03:06.907Z,8.98
2023-01-21T18:05:36.104Z,7.78
2023-01-21T18:08:12.582Z,7.25
2023-01-21T18:10:40.551Z,9.05
2023-01-21T18:13:12.435Z,7.57
2023-01-21T18:15:43.087Z,8.93
2023-01-21T18:18:17.772Z,8.15
2023-01-21T18:20:48.646Z,7.38
2023-01-21T18:23:18.239Z,8.27
2023-01-21T18:25:48.731Z,9.77
2023-01-21T18:28:20.664Z,8.63
2023-01-21T18:30:50.404Z,8.40
2023-01-21T18:33:19.103Z,8.43
2023-01-21T18:35:49.359Z,7.90
2023-01-21T18:38:21.660Z,8.25
2023-01-21T18:40:49.920Z,7.30
2023-01-21T18:43:19.505Z,7.15
2023-01-21T18:45:47.494Z,7.85
2023-01-21T18:48:16.749Z,7.63
2023-01-21T18:50:44.782Z,7.80
2023-01-21T18:53:16.937Z,9.27
2023-01-21T18:55:49.681Z,9.35
2023-01-21T18:58:19.320Z,8.40
2023-01-21T19:00:47.544Z,8.40
2023-01-21T19:03:16.510Z,9.43
2023-01-21T19:05:47.708Z,9.63
2023-01-21T19:08:18.316Z,9.68
2023-01-21T19:10:46.751Z,9.82
2023-01-21T19:13:17.667Z,9.13
2023-01-21T19:15:48.176Z,7.88
2023-01-21T19:18:17.796Z,9.38
2023-01-21T19:20:46.065Z,8.20
2023-01-21T19:23:16.498Z,8.70
2023-01-21T19:25:48.583Z,8.18
2023-01-21T19:28:16.930Z,8.73
2023-01-21T19:30:49.500Z,8.07
2023-01-21T19:33:17.613Z,9.10
2023-01-21T19:35:49.708Z,8.70
2023-01-21T19:38:20.570Z,8.40
2023-01-21T19:40:48.910Z,9.23
2023-01-21T19:43:20.529Z,7.65
2023-01-21T19:45:51.864Z,5.80
2023-01-21T19:48:22.550Z,7.47
2023-01-21T19:50:51.010Z,8.23
2023-01-21T19:53:22.386Z,8.15
2023-01-21T19:55:52.042Z,9.18
2023-01-21T19:58:23.364Z,9.05
2023-01-21T20:00:54.627Z,8.90
2023-01-21T20:03:24.515Z,9.15
2023-01-21T20:05:55.556Z,8.52
2023-01-21T20:08:26.463Z,8.43
2023-01-21T20:10:55.697Z,8.57
2023-01-21T20:13:32.591Z,7.75
2023-01-21T20:16:04.506Z,8.00
2023-01-21T20:18:33.655Z,7.43
2023-01-21T20:21:01.777Z,9.57
2023-01-21T20:23:34.055Z,7.80
2023-01-21T20:26:02.225Z,7.95
2023-01-21T20:28:42.336Z,8.38
2023-01-21T20:31:13.888Z,8.38
2023-01-21T20:33:43.974Z,6.18
2023-01-21T20:36:22.314Z,8.38
2023-01-21T20:38:50.448Z,8.18
2023-01-21T20:41:18.686Z,9.07
2023-01-21T20:43:46.915Z,8.43
2023-01-21T20:46:20.873Z,8.43
2023-01-21T20:48:49.205Z,7.57
2023-01-21T20:51:17.327Z,7.03
2023-01-21T20:53:45.949Z,8.32
2023-01-21T20:56:23.161Z,6.85
2023-01-21T20:58:51.347Z,7.22
2023-01-21T21:01:23.041Z,8.13
2023-01-21T21:03:51.351Z,8.48
2023-01-21T21:06:21.564Z,7.65
2023-01-21T21:08:50.310Z,7.68
2023-01-21T21:11:19.967Z,7.50
2023-01-21T21:13:52.951Z,9.25
2023-01-21T21:16:24.478Z,8.55
2023-01-21T21:18:53.098Z,10.07
2023-01-21T21:21:23.664Z,7.32
2023-01-21T21:23:52.480Z,7.60
2023-01-21T21:26:23.015Z,8.60
2023-01-21T21:28:54.768Z,8.65
2023-01-21T21:31:25.503Z,8.05
2023-01-21T21:33:53.872Z,8.43
2023-01-21T21:36:24.579Z,8.98
2023-01-21T21:38:55.540Z,8.43
2023-01-21T21:41:44.920Z,7.82
2023-01-21T21:44:15.052Z,8.05
2023-01-21T21:47:02.225Z,8.35
2023-01-21T21:49:31.153Z,8.00
2023-01-21T21:52:01.596Z,8.38
2023-01-21T21:54:29.838Z,8.52
2023-01-21T21:57:00.391Z,9.23
2023-01-21T21:59:28.566Z,8.50
2023-01-21T22:02:00.727Z,9.10
2023-01-21T22:04:28.864Z,8.90
2023-01-21T22:06:56.883Z,9.43
2023-01-21T22:09:25.040Z,8.82
2023-01-21T22:11:53.026Z,9.57
2023-01-21T22:14:21.602Z,8.32
2023-01-21T22:16:51.943Z,8.98
2023-01-21T22:19:21.636Z,10.52
2023-01-21T22:21:50.072Z,8.35
2023-01-21T22:24:18.155Z,9.10
2023-01-21T22:26:48.626Z,8.98
2023-01-21T22:29:16.761Z,10.13
2023-01-21T22:31:49.335Z,10.32
2023-01-21T22:34:17.704Z,9.20
2023-01-21T22:36:48.230Z,10.98
2023-01-21T22:39:16.459Z,10.82
2023-01-21T22:41:44.620Z,11.73
2023-01-21T22:44:12.671Z,13.02
2023-01-21T22:46:42.739Z,10.98
2023-01-21T22:49:12.071Z,11.48
2023-01-21T22:51:41.890Z,11.73
2023-01-21T22:54:12.892Z,12.50
2023-01-21T22:56:52.552Z,10.13
2023-01-21T22:59:21.157Z,10.20
2023-01-21T23:01:51.067Z,9.65
2023-01-21T23:04:19.310Z,11.77
2023-01-21T23:06:48.748Z,10.98
2023-01-21T23:09:18.302Z,12.02
2023-01-21T23:11:46.176Z,9.85
2023-01-21T23:14:14.167Z,9.52
2023-01-21T23:16:42.032Z,9.27
2023-01-21T23:19:11.891Z,9.10
2023-01-21T23:21:40.351Z,10.45
2023-01-21T23:24:08.834Z,10.05
2023-01-21T23:26:38.499Z,9.73
2023-01-21T23:29:08.480Z,9.57
2023-01-21T23:31:36.662Z,9.90
2023-01-21T23:34:04.947Z,9.10
2023-01-21T23:36:34.792Z,9.85
2023-01-21T23:39:02.791Z,8.63
2023-01-21T23:41:30.802Z,8.95
2023-01-21T23:44:10.891Z,8.73
2023-01-21T23:46:40.958Z,9.90
2023-01-21T23:49:09.147Z,10.90
2023-01-21T23:51:37.078Z,9.18
2023-01-21T23:54:05.251Z,9.27
2023-01-21T23:56:33.090Z,9.63
2023-01-21T23:59:02.319Z,10.48
